sensor_id;sensor_type;location;lat;lon;timestamp;P1;durP1;ratioP1;P2;durP2;ratioP2
74465;SDS011;62916;50.044;15.938;2023-12-14T00:00:20;4.10;;;3.30;;
74465;SDS011;62916;50.044;15.938;2023-12-14T00:02:52;4.70;;;3.40;;
74465;SDS011;62916;50.044;15.938;2023-12-14T00:05:22;3.80;;;3.20;;
74465;SDS011;62916;50.044;15.938;2023-12-14T00:07:53;3.90;;;3.50;;
74465;SDS011;62916;50.044;15.938;2023-12-14T00:10:24;3.90;;;3.50;;
74465;SDS011;62916;50.044;15.938;2023-12-14T00:12:55;4.10;;;3.70;;
74465;SDS011;62916;50.044;15.938;2023-12-14T00:15:26;3.60;;;3.10;;
74465;SDS011;62916;50.044;15.938;2023-12-14T00:17:57;3.60;;;3.30;;
74465;SDS011;62916;50.044;15.938;2023-12-14T00:20:27;3.60;;;3.30;;
74465;SDS011;62916;50.044;15.938;2023-12-14T00:22:58;3.90;;;3.50;;
74465;SDS011;62916;50.044;15.938;2023-12-14T00:25:29;3.70;;;3.30;;
74465;SDS011;62916;50.044;15.938;2023-12-14T00:28:00;3.40;;;3.10;;
74465;SDS011;62916;50.044;15.938;2023-12-14T00:30:31;3.60;;;3.30;;
74465;SDS011;62916;50.044;15.938;2023-12-14T00:33:02;4.50;;;4.10;;
74465;SDS011;62916;50.044;15.938;2023-12-14T00:35:34;3.60;;;3.30;;
74465;SDS011;62916;50.044;15.938;2023-12-14T00:38:04;3.50;;;3.00;;
74465;SDS011;62916;50.044;15.938;2023-12-14T00:40:35;4.10;;;3.20;;
74465;SDS011;62916;50.044;15.938;2023-12-14T00:43:06;3.90;;;3.40;;
74465;SDS011;62916;50.044;15.938;2023-12-14T00:45:37;3.60;;;3.30;;
74465;SDS011;62916;50.044;15.938;2023-12-14T00:48:09;4.00;;;3.00;;
74465;SDS011;62916;50.044;15.938;2023-12-14T00:50:40;3.30;;;3.00;;
74465;SDS011;62916;50.044;15.938;2023-12-14T00:53:11;3.80;;;3.50;;
74465;SDS011;62916;50.044;15.938;2023-12-14T00:55:41;3.40;;;3.10;;
74465;SDS011;62916;50.044;15.938;2023-12-14T00:58:13;3.40;;;3.00;;
74465;SDS011;62916;50.044;15.938;2023-12-14T01:00:44;4.40;;;4.00;;
74465;SDS011;62916;50.044;15.938;2023-12-14T01:03:15;3.90;;;3.10;;
74465;SDS011;62916;50.044;15.938;2023-12-14T01:05:46;3.80;;;3.40;;
74465;SDS011;62916;50.044;15.938;2023-12-14T01:08:17;3.60;;;3.20;;
74465;SDS011;62916;50.044;15.938;2023-12-14T01:10:48;3.60;;;3.20;;
74465;SDS011;62916;50.044;15.938;2023-12-14T01:13:19;3.30;;;3.00;;
74465;SDS011;62916;50.044;15.938;2023-12-14T01:15:50;3.30;;;3.00;;
74465;SDS011;62916;50.044;15.938;2023-12-14T01:18:20;4.10;;;3.70;;
74465;SDS011;62916;50.044;15.938;2023-12-14T01:20:52;3.60;;;3.00;;
74465;SDS011;62916;50.044;15.938;2023-12-14T01:23:23;3.30;;;3.00;;
74465;SDS011;62916;50.044;15.938;2023-12-14T01:25:54;3.50;;;3.20;;
74465;SDS011;62916;50.044;15.938;2023-12-14T01:28:25;4.00;;;3.50;;
74465;SDS011;62916;50.044;15.938;2023-12-14T01:30:56;3.40;;;3.10;;
74465;SDS011;62916;50.044;15.938;2023-12-14T01:33:28;3.50;;;3.20;;
74465;SDS011;62916;50.044;15.938;2023-12-14T01:35:58;3.40;;;3.10;;
74465;SDS011;62916;50.044;15.938;2023-12-14T01:38:29;3.70;;;3.30;;
74465;SDS011;62916;50.044;15.938;2023-12-14T01:41:00;3.70;;;3.30;;
74465;SDS011;62916;50.044;15.938;2023-12-14T01:43:31;3.40;;;3.10;;
74465;SDS011;62916;50.044;15.938;2023-12-14T01:46:03;3.40;;;3.10;;
74465;SDS011;62916;50.044;15.938;2023-12-14T01:48:34;4.40;;;3.40;;
74465;SDS011;62916;50.044;15.938;2023-12-14T01:51:06;3.60;;;3.30;;
74465;SDS011;62916;50.044;15.938;2023-12-14T01:53:37;3.80;;;3.00;;
74465;SDS011;62916;50.044;15.938;2023-12-14T01:56:09;4.30;;;4.00;;
74465;SDS011;62916;50.044;15.938;2023-12-14T01:58:40;3.20;;;3.00;;
74465;SDS011;62916;50.044;15.938;2023-12-14T02:01:12;3.20;;;2.90;;
74465;SDS011;62916;50.044;15.938;2023-12-14T02:03:51;3.50;;;3.20;;
74465;SDS011;62916;50.044;15.938;2023-12-14T02:06:23;3.40;;;3.10;;
74465;SDS011;62916;50.044;15.938;2023-12-14T02:08:53;3.50;;;3.20;;
74465;SDS011;62916;50.044;15.938;2023-12-14T02:11:24;3.60;;;3.20;;
74465;SDS011;62916;50.044;15.938;2023-12-14T02:13:55;3.30;;;3.00;;
74465;SDS011;62916;50.044;15.938;2023-12-14T02:16:26;3.20;;;2.90;;
74465;SDS011;62916;50.044;15.938;2023-12-14T02:18:57;3.60;;;2.80;;
74465;SDS011;62916;50.044;15.938;2023-12-14T02:21:28;4.00;;;3.30;;
74465;SDS011;62916;50.044;15.938;2023-12-14T02:23:58;3.20;;;2.90;;
74465;SDS011;62916;50.044;15.938;2023-12-14T02:26:29;3.20;;;2.90;;
74465;SDS011;62916;50.044;15.938;2023-12-14T02:29:00;3.40;;;3.00;;
74465;SDS011;62916;50.044;15.938;2023-12-14T02:31:31;3.80;;;3.00;;
74465;SDS011;62916;50.044;15.938;2023-12-14T02:34:02;3.10;;;2.80;;
74465;SDS011;62916;50.044;15.938;2023-12-14T02:36:33;3.40;;;3.10;;
74465;SDS011;62916;50.044;15.938;2023-12-14T02:39:04;2.90;;;2.70;;
74465;SDS011;62916;50.044;15.938;2023-12-14T02:41:35;3.10;;;2.80;;
74465;SDS011;62916;50.044;15.938;2023-12-14T02:44:06;3.30;;;3.00;;
74465;SDS011;62916;50.044;15.938;2023-12-14T02:46:36;2.70;;;2.50;;
74465;SDS011;62916;50.044;15.938;2023-12-14T02:49:07;3.20;;;2.90;;
74465;SDS011;62916;50.044;15.938;2023-12-14T02:51:39;4.10;;;3.00;;
74465;SDS011;62916;50.044;15.938;2023-12-14T02:54:09;3.60;;;3.30;;
74465;SDS011;62916;50.044;15.938;2023-12-14T02:56:40;3.00;;;2.70;;
74465;SDS011;62916;50.044;15.938;2023-12-14T02:59:11;3.20;;;2.90;;
74465;SDS011;62916;50.044;15.938;2023-12-14T03:01:42;3.00;;;2.70;;
74465;SDS011;62916;50.044;15.938;2023-12-14T03:04:13;3.80;;;3.40;;
74465;SDS011;62916;50.044;15.938;2023-12-14T03:06:44;3.40;;;2.80;;
74465;SDS011;62916;50.044;15.938;2023-12-14T03:09:15;3.10;;;2.80;;
74465;SDS011;62916;50.044;15.938;2023-12-14T03:11:47;3.30;;;3.00;;
74465;SDS011;62916;50.044;15.938;2023-12-14T03:14:18;3.40;;;3.10;;
74465;SDS011;62916;50.044;15.938;2023-12-14T03:16:49;3.10;;;2.80;;
74465;SDS011;62916;50.044;15.938;2023-12-14T03:19:20;3.00;;;2.70;;
74465;SDS011;62916;50.044;15.938;2023-12-14T03:21:51;3.00;;;2.70;;
74465;SDS011;62916;50.044;15.938;2023-12-14T03:24:22;3.20;;;2.80;;
74465;SDS011;62916;50.044;15.938;2023-12-14T03:26:52;3.10;;;2.80;;
74465;SDS011;62916;50.044;15.938;2023-12-14T03:29:23;3.30;;;3.00;;
74465;SDS011;62916;50.044;15.938;2023-12-14T03:31:55;3.60;;;3.30;;
74465;SDS011;62916;50.044;15.938;2023-12-14T03:34:26;3.40;;;3.10;;
74465;SDS011;62916;50.044;15.938;2023-12-14T03:36:57;4.40;;;2.60;;
74465;SDS011;62916;50.044;15.938;2023-12-14T03:39:28;4.00;;;3.10;;
74465;SDS011;62916;50.044;15.938;2023-12-14T03:41:59;3.90;;;3.10;;
74465;SDS011;62916;50.044;15.938;2023-12-14T03:44:30;2.90;;;2.70;;
74465;SDS011;62916;50.044;15.938;2023-12-14T03:47:00;3.00;;;2.70;;
74465;SDS011;62916;50.044;15.938;2023-12-14T03:49:31;3.10;;;2.80;;
74465;SDS011;62916;50.044;15.938;2023-12-14T03:52:07;3.20;;;2.90;;
74465;SDS011;62916;50.044;15.938;2023-12-14T03:54:38;3.40;;;2.80;;
74465;SDS011;62916;50.044;15.938;2023-12-14T03:57:09;3.20;;;2.80;;
74465;SDS011;62916;50.044;15.938;2023-12-14T03:59:40;3.30;;;2.80;;
74465;SDS011;62916;50.044;15.938;2023-12-14T04:02:11;3.70;;;3.20;;
74465;SDS011;62916;50.044;15.938;2023-12-14T04:04:42;3.20;;;2.90;;
74465;SDS011;62916;50.044;15.938;2023-12-14T04:07:15;4.20;;;3.10;;
74465;SDS011;62916;50.044;15.938;2023-12-14T04:09:46;3.00;;;2.70;;
74465;SDS011;62916;50.044;15.938;2023-12-14T04:12:16;3.20;;;2.50;;
74465;SDS011;62916;50.044;15.938;2023-12-14T04:14:47;3.10;;;2.80;;
74465;SDS011;62916;50.044;15.938;2023-12-14T04:17:19;3.40;;;2.70;;
74465;SDS011;62916;50.044;15.938;2023-12-14T04:19:50;3.40;;;3.10;;
74465;SDS011;62916;50.044;15.938;2023-12-14T04:22:20;4.00;;;3.00;;
74465;SDS011;62916;50.044;15.938;2023-12-14T04:24:51;3.30;;;2.70;;
74465;SDS011;62916;50.044;15.938;2023-12-14T04:27:23;3.50;;;2.80;;
74465;SDS011;62916;50.044;15.938;2023-12-14T04:29:56;3.40;;;3.00;;
74465;SDS011;62916;50.044;15.938;2023-12-14T04:32:27;4.00;;;2.80;;
74465;SDS011;62916;50.044;15.938;2023-12-14T04:34:58;3.00;;;2.70;;
74465;SDS011;62916;50.044;15.938;2023-12-14T04:37:29;3.20;;;2.70;;
74465;SDS011;62916;50.044;15.938;2023-12-14T04:40:00;5.20;;;2.80;;
74465;SDS011;62916;50.044;15.938;2023-12-14T04:42:32;3.50;;;2.80;;
74465;SDS011;62916;50.044;15.938;2023-12-14T04:45:05;3.00;;;2.70;;
74465;SDS011;62916;50.044;15.938;2023-12-14T04:47:38;2.90;;;2.70;;
74465;SDS011;62916;50.044;15.938;2023-12-14T04:50:09;3.40;;;2.70;;
74465;SDS011;62916;50.044;15.938;2023-12-14T04:52:40;4.00;;;2.80;;
74465;SDS011;62916;50.044;15.938;2023-12-14T04:55:11;3.60;;;3.00;;
74465;SDS011;62916;50.044;15.938;2023-12-14T04:57:42;6.20;;;3.10;;
74465;SDS011;62916;50.044;15.938;2023-12-14T05:00:17;4.20;;;2.70;;
74465;SDS011;62916;50.044;15.938;2023-12-14T05:02:48;6.70;;;3.50;;
74465;SDS011;62916;50.044;15.938;2023-12-14T05:05:19;9.30;;;4.40;;
74465;SDS011;62916;50.044;15.938;2023-12-14T05:07:50;9.10;;;4.20;;
74465;SDS011;62916;50.044;15.938;2023-12-14T05:10:21;11.00;;;3.90;;
74465;SDS011;62916;50.044;15.938;2023-12-14T05:12:52;8.10;;;4.40;;
74465;SDS011;62916;50.044;15.938;2023-12-14T05:15:22;9.40;;;4.70;;
74465;SDS011;62916;50.044;15.938;2023-12-14T05:17:53;14.50;;;4.70;;
74465;SDS011;62916;50.044;15.938;2023-12-14T05:20:24;21.50;;;5.70;;
74465;SDS011;62916;50.044;15.938;2023-12-14T05:22:55;27.80;;;6.30;;
74465;SDS011;62916;50.044;15.938;2023-12-14T05:25:26;19.20;;;4.90;;
74465;SDS011;62916;50.044;15.938;2023-12-14T05:27:57;19.40;;;5.50;;
74465;SDS011;62916;50.044;15.938;2023-12-14T05:30:28;17.90;;;6.10;;
74465;SDS011;62916;50.044;15.938;2023-12-14T05:32:59;15.70;;;4.70;;
74465;SDS011;62916;50.044;15.938;2023-12-14T05:35:30;12.10;;;4.80;;
74465;SDS011;62916;50.044;15.938;2023-12-14T05:38:01;13.90;;;4.60;;
74465;SDS011;62916;50.044;15.938;2023-12-14T05:40:32;14.40;;;4.70;;
74465;SDS011;62916;50.044;15.938;2023-12-14T05:43:03;10.50;;;4.50;;
74465;SDS011;62916;50.044;15.938;2023-12-14T05:45:34;14.70;;;4.60;;
74465;SDS011;62916;50.044;15.938;2023-12-14T05:48:06;8.60;;;4.60;;
74465;SDS011;62916;50.044;15.938;2023-12-14T05:50:37;11.10;;;4.80;;
74465;SDS011;62916;50.044;15.938;2023-12-14T05:53:08;8.50;;;4.20;;
74465;SDS011;62916;50.044;15.938;2023-12-14T05:55:39;14.40;;;4.30;;
74465;SDS011;62916;50.044;15.938;2023-12-14T05:58:10;9.20;;;4.40;;
74465;SDS011;62916;50.044;15.938;2023-12-14T06:00:41;11.10;;;4.60;;
74465;SDS011;62916;50.044;15.938;2023-12-14T06:03:12;10.10;;;4.00;;
74465;SDS011;62916;50.044;15.938;2023-12-14T06:05:43;9.10;;;4.80;;
74465;SDS011;62916;50.044;15.938;2023-12-14T06:08:14;11.40;;;4.30;;
74465;SDS011;62916;50.044;15.938;2023-12-14T06:10:45;8.80;;;3.70;;
74465;SDS011;62916;50.044;15.938;2023-12-14T06:13:17;9.50;;;3.80;;
74465;SDS011;62916;50.044;15.938;2023-12-14T06:15:48;8.20;;;3.30;;
74465;SDS011;62916;50.044;15.938;2023-12-14T06:18:19;7.40;;;3.70;;
74465;SDS011;62916;50.044;15.938;2023-12-14T06:20:50;8.20;;;3.50;;
74465;SDS011;62916;50.044;15.938;2023-12-14T06:23:21;6.60;;;4.10;;
74465;SDS011;62916;50.044;15.938;2023-12-14T06:25:53;6.90;;;3.30;;
74465;SDS011;62916;50.044;15.938;2023-12-14T06:28:24;6.30;;;3.30;;
74465;SDS011;62916;50.044;15.938;2023-12-14T06:30:55;5.80;;;3.40;;
74465;SDS011;62916;50.044;15.938;2023-12-14T06:33:26;7.00;;;3.60;;
74465;SDS011;62916;50.044;15.938;2023-12-14T06:35:57;6.50;;;3.80;;
74465;SDS011;62916;50.044;15.938;2023-12-14T06:38:33;7.00;;;3.60;;
74465;SDS011;62916;50.044;15.938;2023-12-14T06:41:06;6.00;;;3.10;;
74465;SDS011;62916;50.044;15.938;2023-12-14T06:43:38;6.50;;;3.70;;
74465;SDS011;62916;50.044;15.938;2023-12-14T06:46:10;7.30;;;3.50;;
74465;SDS011;62916;50.044;15.938;2023-12-14T06:48:41;7.80;;;3.50;;
74465;SDS011;62916;50.044;15.938;2023-12-14T06:51:11;6.70;;;3.50;;
74465;SDS011;62916;50.044;15.938;2023-12-14T06:53:43;6.90;;;3.60;;
74465;SDS011;62916;50.044;15.938;2023-12-14T06:56:15;6.10;;;3.20;;
74465;SDS011;62916;50.044;15.938;2023-12-14T06:58:46;5.90;;;3.40;;
74465;SDS011;62916;50.044;15.938;2023-12-14T07:01:17;5.60;;;3.60;;
74465;SDS011;62916;50.044;15.938;2023-12-14T07:03:48;5.00;;;3.30;;
74465;SDS011;62916;50.044;15.938;2023-12-14T07:06:20;5.40;;;3.40;;
74465;SDS011;62916;50.044;15.938;2023-12-14T07:08:51;6.10;;;3.40;;
74465;SDS011;62916;50.044;15.938;2023-12-14T07:11:21;5.30;;;3.10;;
74465;SDS011;62916;50.044;15.938;2023-12-14T07:13:52;6.20;;;3.00;;
74465;SDS011;62916;50.044;15.938;2023-12-14T07:16:23;6.40;;;3.30;;
74465;SDS011;62916;50.044;15.938;2023-12-14T07:18:54;4.90;;;3.40;;
74465;SDS011;62916;50.044;15.938;2023-12-14T07:21:25;4.00;;;3.00;;
74465;SDS011;62916;50.044;15.938;2023-12-14T07:23:56;4.90;;;2.60;;
74465;SDS011;62916;50.044;15.938;2023-12-14T07:26:27;5.40;;;3.00;;
74465;SDS011;62916;50.044;15.938;2023-12-14T07:28:58;4.60;;;2.90;;
74465;SDS011;62916;50.044;15.938;2023-12-14T07:31:29;7.10;;;3.30;;
74465;SDS011;62916;50.044;15.938;2023-12-14T07:34:02;5.30;;;2.90;;
74465;SDS011;62916;50.044;15.938;2023-12-14T07:36:33;6.30;;;3.30;;
74465;SDS011;62916;50.044;15.938;2023-12-14T07:39:05;5.50;;;3.20;;
74465;SDS011;62916;50.044;15.938;2023-12-14T07:41:37;5.70;;;3.10;;
74465;SDS011;62916;50.044;15.938;2023-12-14T07:44:07;4.40;;;3.00;;
74465;SDS011;62916;50.044;15.938;2023-12-14T07:46:39;4.60;;;3.00;;
74465;SDS011;62916;50.044;15.938;2023-12-14T07:49:11;5.30;;;3.10;;
74465;SDS011;62916;50.044;15.938;2023-12-14T07:51:43;4.00;;;3.00;;
74465;SDS011;62916;50.044;15.938;2023-12-14T07:54:14;5.30;;;2.90;;
74465;SDS011;62916;50.044;15.938;2023-12-14T07:56:45;5.50;;;3.20;;
74465;SDS011;62916;50.044;15.938;2023-12-14T07:59:16;6.40;;;3.20;;
74465;SDS011;62916;50.044;15.938;2023-12-14T08:01:47;4.40;;;3.00;;
74465;SDS011;62916;50.044;15.938;2023-12-14T08:04:19;4.30;;;2.90;;
74465;SDS011;62916;50.044;15.938;2023-12-14T08:06:50;5.50;;;3.60;;
74465;SDS011;62916;50.044;15.938;2023-12-14T08:09:21;5.10;;;3.70;;
74465;SDS011;62916;50.044;15.938;2023-12-14T08:11:52;5.00;;;2.90;;
74465;SDS011;62916;50.044;15.938;2023-12-14T08:14:23;5.20;;;2.80;;
74465;SDS011;62916;50.044;15.938;2023-12-14T08:16:54;6.50;;;3.20;;
74465;SDS011;62916;50.044;15.938;2023-12-14T08:19:25;4.70;;;2.90;;
74465;SDS011;62916;50.044;15.938;2023-12-14T08:21:56;3.70;;;2.60;;
74465;SDS011;62916;50.044;15.938;2023-12-14T08:24:28;4.60;;;2.90;;
74465;SDS011;62916;50.044;15.938;2023-12-14T08:26:59;3.90;;;3.00;;
74465;SDS011;62916;50.044;15.938;2023-12-14T08:29:30;5.10;;;3.40;;
74465;SDS011;62916;50.044;15.938;2023-12-14T08:32:03;4.60;;;3.00;;
74465;SDS011;62916;50.044;15.938;2023-12-14T08:34:34;4.30;;;2.80;;
74465;SDS011;62916;50.044;15.938;2023-12-14T08:37:05;7.00;;;3.70;;
74465;SDS011;62916;50.044;15.938;2023-12-14T08:39:36;4.00;;;2.80;;
74465;SDS011;62916;50.044;15.938;2023-12-14T08:42:08;4.50;;;3.20;;
74465;SDS011;62916;50.044;15.938;2023-12-14T08:44:39;5.10;;;3.00;;
74465;SDS011;62916;50.044;15.938;2023-12-14T08:47:11;4.50;;;3.10;;
74465;SDS011;62916;50.044;15.938;2023-12-14T08:49:42;6.30;;;3.40;;
74465;SDS011;62916;50.044;15.938;2023-12-14T08:52:13;5.30;;;3.40;;
74465;SDS011;62916;50.044;15.938;2023-12-14T08:54:44;3.60;;;2.90;;
74465;SDS011;62916;50.044;15.938;2023-12-14T08:57:15;4.50;;;4.00;;
74465;SDS011;62916;50.044;15.938;2023-12-14T08:59:46;4.50;;;3.40;;
74465;SDS011;62916;50.044;15.938;2023-12-14T09:02:17;5.30;;;3.90;;
74465;SDS011;62916;50.044;15.938;2023-12-14T09:04:48;4.00;;;3.10;;
74465;SDS011;62916;50.044;15.938;2023-12-14T09:07:19;5.60;;;3.70;;
74465;SDS011;62916;50.044;15.938;2023-12-14T09:09:50;4.70;;;3.40;;
74465;SDS011;62916;50.044;15.938;2023-12-14T09:12:21;5.30;;;4.50;;
74465;SDS011;62916;50.044;15.938;2023-12-14T09:14:52;5.40;;;3.80;;
74465;SDS011;62916;50.044;15.938;2023-12-14T09:17:24;6.70;;;4.30;;
74465;SDS011;62916;50.044;15.938;2023-12-14T09:20:05;5.10;;;4.50;;
74465;SDS011;62916;50.044;15.938;2023-12-14T09:22:39;5.30;;;4.30;;
74465;SDS011;62916;50.044;15.938;2023-12-14T09:25:10;4.90;;;3.40;;
74465;SDS011;62916;50.044;15.938;2023-12-14T09:27:41;4.30;;;3.90;;
74465;SDS011;62916;50.044;15.938;2023-12-14T09:30:13;4.90;;;3.60;;
74465;SDS011;62916;50.044;15.938;2023-12-14T09:32:45;5.00;;;4.10;;
74465;SDS011;62916;50.044;15.938;2023-12-14T09:35:17;6.10;;;4.40;;
74465;SDS011;62916;50.044;15.938;2023-12-14T09:37:48;5.90;;;4.10;;
74465;SDS011;62916;50.044;15.938;2023-12-14T09:40:19;5.20;;;4.00;;
74465;SDS011;62916;50.044;15.938;2023-12-14T09:42:51;4.60;;;4.00;;
74465;SDS011;62916;50.044;15.938;2023-12-14T09:45:22;5.50;;;4.10;;
74465;SDS011;62916;50.044;15.938;2023-12-14T09:47:57;5.80;;;4.10;;
74465;SDS011;62916;50.044;15.938;2023-12-14T09:50:29;5.80;;;4.20;;
74465;SDS011;62916;50.044;15.938;2023-12-14T09:53:03;4.90;;;4.40;;
74465;SDS011;62916;50.044;15.938;2023-12-14T09:55:34;4.90;;;4.20;;
74465;SDS011;62916;50.044;15.938;2023-12-14T09:58:05;4.70;;;4.10;;
74465;SDS011;62916;50.044;15.938;2023-12-14T10:00:37;5.20;;;4.50;;
74465;SDS011;62916;50.044;15.938;2023-12-14T10:03:20;5.40;;;4.50;;
74465;SDS011;62916;50.044;15.938;2023-12-14T10:05:54;4.50;;;4.10;;
74465;SDS011;62916;50.044;15.938;2023-12-14T10:08:26;5.20;;;4.30;;
74465;SDS011;62916;50.044;15.938;2023-12-14T10:10:57;5.40;;;4.20;;
74465;SDS011;62916;50.044;15.938;2023-12-14T10:13:38;5.90;;;4.30;;
74465;SDS011;62916;50.044;15.938;2023-12-14T10:16:10;5.40;;;4.30;;
74465;SDS011;62916;50.044;15.938;2023-12-14T10:18:41;5.70;;;4.80;;
74465;SDS011;62916;50.044;15.938;2023-12-14T10:21:12;5.10;;;4.60;;
74465;SDS011;62916;50.044;15.938;2023-12-14T10:23:43;5.30;;;4.80;;
74465;SDS011;62916;50.044;15.938;2023-12-14T10:26:15;5.40;;;4.60;;
74465;SDS011;62916;50.044;15.938;2023-12-14T10:28:46;5.00;;;4.50;;
74465;SDS011;62916;50.044;15.938;2023-12-14T10:31:19;5.50;;;4.70;;
74465;SDS011;62916;50.044;15.938;2023-12-14T10:33:50;5.10;;;4.50;;
74465;SDS011;62916;50.044;15.938;2023-12-14T10:36:21;5.80;;;4.70;;
74465;SDS011;62916;50.044;15.938;2023-12-14T10:38:56;5.70;;;4.60;;
74465;SDS011;62916;50.044;15.938;2023-12-14T10:41:28;6.60;;;5.10;;
74465;SDS011;62916;50.044;15.938;2023-12-14T10:44:02;6.30;;;4.80;;
74465;SDS011;62916;50.044;15.938;2023-12-14T10:49:25;6.10;;;4.30;;
74465;SDS011;62916;50.044;15.938;2023-12-14T10:51:58;5.20;;;4.70;;
74465;SDS011;62916;50.044;15.938;2023-12-14T10:54:32;5.50;;;4.90;;
74465;SDS011;62916;50.044;15.938;2023-12-14T10:57:06;6.00;;;5.10;;
74465;SDS011;62916;50.044;15.938;2023-12-14T10:59:37;5.90;;;4.80;;
74465;SDS011;62916;50.044;15.938;2023-12-14T11:02:10;6.20;;;4.80;;
74465;SDS011;62916;50.044;15.938;2023-12-14T11:04:56;5.10;;;4.40;;
74465;SDS011;62916;50.044;15.938;2023-12-14T11:07:46;5.80;;;4.60;;
74465;SDS011;62916;50.044;15.938;2023-12-14T11:10:21;5.70;;;5.10;;
74465;SDS011;62916;50.044;15.938;2023-12-14T11:13:00;6.70;;;5.00;;
74465;SDS011;62916;50.044;15.938;2023-12-14T11:15:33;6.70;;;5.00;;
74465;SDS011;62916;50.044;15.938;2023-12-14T11:20:58;6.70;;;6.10;;
74465;SDS011;62916;50.044;15.938;2023-12-14T11:23:31;7.10;;;6.40;;
74465;SDS011;62916;50.044;15.938;2023-12-14T11:26:04;6.80;;;5.20;;
74465;SDS011;62916;50.044;15.938;2023-12-14T11:28:38;7.00;;;5.40;;
74465;SDS011;62916;50.044;15.938;2023-12-14T11:31:11;5.30;;;4.80;;
74465;SDS011;62916;50.044;15.938;2023-12-14T11:33:45;5.60;;;5.10;;
74465;SDS011;62916;50.044;15.938;2023-12-14T11:36:17;6.90;;;5.40;;
74465;SDS011;62916;50.044;15.938;2023-12-14T11:38:48;6.70;;;5.20;;
74465;SDS011;62916;50.044;15.938;2023-12-14T11:41:22;5.90;;;5.40;;
74465;SDS011;62916;50.044;15.938;2023-12-14T11:43:55;6.00;;;5.40;;
74465;SDS011;62916;50.044;15.938;2023-12-14T11:46:28;6.30;;;5.70;;
74465;SDS011;62916;50.044;15.938;2023-12-14T11:48:59;6.30;;;5.70;;
74465;SDS011;62916;50.044;15.938;2023-12-14T11:51:34;5.90;;;5.40;;
74465;SDS011;62916;50.044;15.938;2023-12-14T11:56:35;6.60;;;6.10;;
74465;SDS011;62916;50.044;15.938;2023-12-14T11:59:06;7.10;;;5.70;;
74465;SDS011;62916;50.044;15.938;2023-12-14T12:01:48;6.20;;;5.60;;
74465;SDS011;62916;50.044;15.938;2023-12-14T12:04:25;5.80;;;5.30;;
74465;SDS011;62916;50.044;15.938;2023-12-14T12:07:00;6.90;;;5.90;;
74465;SDS011;62916;50.044;15.938;2023-12-14T12:09:39;6.30;;;5.70;;
74465;SDS011;62916;50.044;15.938;2023-12-14T12:12:12;6.50;;;5.60;;
74465;SDS011;62916;50.044;15.938;2023-12-14T12:14:43;7.30;;;5.60;;
74465;SDS011;62916;50.044;15.938;2023-12-14T12:17:15;7.00;;;6.30;;
74465;SDS011;62916;50.044;15.938;2023-12-14T12:19:47;5.70;;;5.20;;
74465;SDS011;62916;50.044;15.938;2023-12-14T12:22:19;5.80;;;5.00;;
74465;SDS011;62916;50.044;15.938;2023-12-14T12:24:50;6.10;;;5.50;;
74465;SDS011;62916;50.044;15.938;2023-12-14T12:27:35;6.90;;;6.20;;
74465;SDS011;62916;50.044;15.938;2023-12-14T12:30:07;6.40;;;5.40;;
74465;SDS011;62916;50.044;15.938;2023-12-14T12:32:39;6.20;;;5.50;;
74465;SDS011;62916;50.044;15.938;2023-12-14T12:35:11;6.30;;;5.70;;
74465;SDS011;62916;50.044;15.938;2023-12-14T12:37:42;6.20;;;5.60;;
74465;SDS011;62916;50.044;15.938;2023-12-14T12:40:13;5.80;;;5.20;;
74465;SDS011;62916;50.044;15.938;2023-12-14T12:42:47;6.40;;;5.70;;
74465;SDS011;62916;50.044;15.938;2023-12-14T12:45:19;7.10;;;5.90;;
74465;SDS011;62916;50.044;15.938;2023-12-14T12:47:52;5.80;;;5.20;;
74465;SDS011;62916;50.044;15.938;2023-12-14T12:50:24;6.90;;;6.00;;
74465;SDS011;62916;50.044;15.938;2023-12-14T12:52:55;5.80;;;5.20;;
74465;SDS011;62916;50.044;15.938;2023-12-14T12:55:25;6.30;;;5.70;;
74465;SDS011;62916;50.044;15.938;2023-12-14T12:57:57;5.80;;;5.30;;
74465;SDS011;62916;50.044;15.938;2023-12-14T13:00:33;6.00;;;5.40;;
74465;SDS011;62916;50.044;15.938;2023-12-14T13:03:05;6.30;;;5.60;;
74465;SDS011;62916;50.044;15.938;2023-12-14T13:05:38;6.30;;;5.70;;
74465;SDS011;62916;50.044;15.938;2023-12-14T13:08:10;6.70;;;5.50;;
74465;SDS011;62916;50.044;15.938;2023-12-14T13:10:41;7.00;;;6.30;;
74465;SDS011;62916;50.044;15.938;2023-12-14T13:13:12;6.40;;;5.40;;
74465;SDS011;62916;50.044;15.938;2023-12-14T13:15:44;6.00;;;5.20;;
74465;SDS011;62916;50.044;15.938;2023-12-14T13:18:14;5.30;;;4.90;;
74465;SDS011;62916;50.044;15.938;2023-12-14T13:20:46;5.80;;;5.20;;
74465;SDS011;62916;50.044;15.938;2023-12-14T13:23:17;6.50;;;5.30;;
74465;SDS011;62916;50.044;15.938;2023-12-14T13:25:48;5.40;;;4.90;;
74465;SDS011;62916;50.044;15.938;2023-12-14T13:28:19;5.10;;;4.60;;
74465;SDS011;62916;50.044;15.938;2023-12-14T13:30:51;6.10;;;5.40;;
74465;SDS011;62916;50.044;15.938;2023-12-14T13:33:22;6.10;;;5.30;;
74465;SDS011;62916;50.044;15.938;2023-12-14T13:35:56;6.00;;;5.20;;
74465;SDS011;62916;50.044;15.938;2023-12-14T13:38:26;5.10;;;4.60;;
74465;SDS011;62916;50.044;15.938;2023-12-14T13:41:00;5.50;;;5.00;;
74465;SDS011;62916;50.044;15.938;2023-12-14T13:43:32;5.20;;;4.70;;
74465;SDS011;62916;50.044;15.938;2023-12-14T13:46:03;6.10;;;5.50;;
74465;SDS011;62916;50.044;15.938;2023-12-14T13:48:47;5.70;;;5.20;;
74465;SDS011;62916;50.044;15.938;2023-12-14T13:51:21;5.50;;;5.00;;
74465;SDS011;62916;50.044;15.938;2023-12-14T13:53:52;6.60;;;5.90;;
74465;SDS011;62916;50.044;15.938;2023-12-14T13:56:23;5.80;;;5.30;;
74465;SDS011;62916;50.044;15.938;2023-12-14T13:58:54;5.50;;;4.90;;
74465;SDS011;62916;50.044;15.938;2023-12-14T14:01:25;5.40;;;4.90;;
74465;SDS011;62916;50.044;15.938;2023-12-14T14:03:56;6.60;;;6.00;;
74465;SDS011;62916;50.044;15.938;2023-12-14T14:06:27;5.70;;;5.20;;
74465;SDS011;62916;50.044;15.938;2023-12-14T14:08:58;5.10;;;4.60;;
74465;SDS011;62916;50.044;15.938;2023-12-14T14:11:29;5.60;;;5.00;;
74465;SDS011;62916;50.044;15.938;2023-12-14T14:14:00;5.30;;;4.80;;
74465;SDS011;62916;50.044;15.938;2023-12-14T14:16:32;5.80;;;5.20;;
74465;SDS011;62916;50.044;15.938;2023-12-14T14:19:03;5.30;;;4.70;;
74465;SDS011;62916;50.044;15.938;2023-12-14T14:21:34;5.50;;;5.00;;
74465;SDS011;62916;50.044;15.938;2023-12-14T14:24:05;5.30;;;4.80;;
74465;SDS011;62916;50.044;15.938;2023-12-14T14:26:37;6.50;;;5.20;;
74465;SDS011;62916;50.044;15.938;2023-12-14T14:29:08;5.90;;;4.90;;
74465;SDS011;62916;50.044;15.938;2023-12-14T14:31:39;5.50;;;4.90;;
74465;SDS011;62916;50.044;15.938;2023-12-14T14:34:11;5.10;;;4.60;;
74465;SDS011;62916;50.044;15.938;2023-12-14T14:36:43;5.90;;;4.70;;
74465;SDS011;62916;50.044;15.938;2023-12-14T14:39:14;5.90;;;4.80;;
74465;SDS011;62916;50.044;15.938;2023-12-14T14:41:46;5.80;;;5.30;;
74465;SDS011;62916;50.044;15.938;2023-12-14T14:44:17;4.60;;;4.20;;
74465;SDS011;62916;50.044;15.938;2023-12-14T14:46:48;5.50;;;5.00;;
74465;SDS011;62916;50.044;15.938;2023-12-14T14:49:20;5.30;;;4.70;;
74465;SDS011;62916;50.044;15.938;2023-12-14T14:51:51;5.30;;;4.70;;
74465;SDS011;62916;50.044;15.938;2023-12-14T14:54:22;5.00;;;4.30;;
74465;SDS011;62916;50.044;15.938;2023-12-14T14:56:53;5.30;;;4.70;;
74465;SDS011;62916;50.044;15.938;2023-12-14T14:59:24;4.90;;;4.30;;
74465;SDS011;62916;50.044;15.938;2023-12-14T15:01:58;5.80;;;5.20;;
74465;SDS011;62916;50.044;15.938;2023-12-14T15:04:30;5.60;;;4.90;;
74465;SDS011;62916;50.044;15.938;2023-12-14T15:07:01;4.90;;;4.40;;